createdAt,value
2019-06-15T00:00:15.995Z,0
2019-06-15T00:01:16.631Z,0
2019-06-15T00:02:17.228Z,0
2019-06-15T00:03:17.797Z,0
2019-06-15T00:04:18.407Z,0
2019-06-15T00:05:18.979Z,0
2019-06-15T00:06:19.550Z,0
2019-06-15T00:07:20.121Z,0
2019-06-15T00:08:20.692Z,0
2019-06-15T00:09:21.262Z,0
2019-06-15T00:10:21.862Z,0
2019-06-15T00:11:22.454Z,0
2019-06-15T00:12:23.020Z,0
2019-06-15T00:13:23.601Z,0
2019-06-15T00:14:24.217Z,0
2019-06-15T00:15:24.795Z,0
2019-06-15T00:16:25.363Z,0
2019-06-15T00:17:25.936Z,0
2019-06-15T00:18:26.548Z,0
2019-06-15T00:19:27.121Z,0
2019-06-15T00:20:27.693Z,0
2019-06-15T00:21:28.263Z,0
2019-06-15T00:22:28.838Z,0
2019-06-15T00:23:29.609Z,0
2019-06-15T00:24:35.456Z,0
2019-06-15T00:25:30.789Z,0
2019-06-15T00:26:31.358Z,0
2019-06-15T00:27:31.933Z,0
2019-06-15T00:28:32.515Z,0
2019-06-15T00:29:33.073Z,0
2019-06-15T00:30:33.644Z,0
2019-06-15T00:31:34.216Z,0
2019-06-15T00:32:34.787Z,0
2019-06-15T00:33:35.357Z,0
2019-06-15T00:34:35.933Z,0
2019-06-15T00:35:36.505Z,0
2019-06-15T00:36:37.075Z,0
2019-06-15T00:37:37.647Z,0
2019-06-15T00:38:38.219Z,0
2019-06-15T00:39:38.811Z,0
2019-06-15T00:40:39.409Z,0
2019-06-15T00:41:39.977Z,0
2019-06-15T00:42:40.549Z,0
2019-06-15T00:43:41.120Z,0
2019-06-15T00:44:41.692Z,0
2019-06-15T00:45:42.465Z,0
2019-06-15T00:46:43.038Z,0
2019-06-15T00:47:43.611Z,0
2019-06-15T00:48:44.225Z,0
2019-06-15T00:49:44.838Z,0
2019-06-15T00:50:45.368Z,0
2019-06-15T00:51:45.938Z,0
2019-06-15T00:52:46.509Z,0
2019-06-15T00:53:47.079Z,0
2019-06-15T00:54:50.638Z,0
2019-06-15T00:55:49.235Z,0
2019-06-15T00:56:49.833Z,0
2019-06-15T00:57:50.405Z,0
2019-06-15T00:58:51.024Z,0
2019-06-15T00:59:51.601Z,0
2019-06-15T01:00:52.209Z,0
2019-06-15T01:01:52.785Z,0
2019-06-15T01:02:53.351Z,0
2019-06-15T01:03:53.924Z,0
2019-06-15T01:04:54.495Z,0
2019-06-15T01:05:55.089Z,0
2019-06-15T01:06:55.685Z,0
2019-06-15T01:07:56.254Z,0
2019-06-15T01:08:56.826Z,0
2019-06-15T01:09:57.399Z,0
2019-06-15T01:10:57.976Z,0
2019-06-15T01:11:58.543Z,0
2019-06-15T01:12:59.315Z,0
2019-06-15T01:13:59.886Z,0
2019-06-15T01:15:00.457Z,0
2019-06-15T01:16:01.029Z,0
2019-06-15T01:17:01.607Z,0
2019-06-15T01:18:02.172Z,0
2019-06-15T01:19:02.745Z,0
2019-06-15T01:20:03.340Z,0
2019-06-15T01:21:03.969Z,0
2019-06-15T01:22:04.545Z,0
2019-06-15T01:23:05.116Z,0
2019-06-15T01:24:05.691Z,0
2019-06-15T01:25:06.307Z,0
2019-06-15T01:26:06.872Z,0
2019-06-15T01:27:07.445Z,0
2019-06-15T01:28:08.019Z,0
2019-06-15T01:29:08.585Z,0
2019-06-15T01:30:09.193Z,0
2019-06-15T01:31:09.731Z,0
2019-06-15T01:32:10.304Z,0
2019-06-15T01:33:10.872Z,0
2019-06-15T01:34:11.451Z,0
2019-06-15T01:35:12.022Z,0
2019-06-15T01:36:12.634Z,0
2019-06-15T01:37:13.197Z,0
2019-06-15T01:38:13.769Z,0
2019-06-15T01:39:14.342Z,0
2019-06-15T01:40:14.914Z,0
2019-06-15T01:41:15.482Z,0
2019-06-15T01:42:16.055Z,0
2019-06-15T01:43:16.673Z,0
2019-06-15T01:44:17.239Z,0
2019-06-15T01:45:17.813Z,0
2019-06-15T01:46:18.421Z,0
2019-06-15T01:47:18.994Z,0
2019-06-15T01:48:19.609Z,0
2019-06-15T01:49:20.176Z,0
2019-06-15T01:50:20.750Z,0
2019-06-15T01:51:21.341Z,0
2019-06-15T01:52:21.893Z,0
2019-06-15T01:53:22.461Z,0
2019-06-15T01:54:23.029Z,0
2019-06-15T01:55:23.600Z,0
2019-06-15T01:56:24.173Z,0
2019-06-15T01:57:24.741Z,0
2019-06-15T01:58:25.314Z,0
2019-06-15T01:59:25.892Z,0
2019-06-15T02:00:26.499Z,0
2019-06-15T02:01:27.073Z,0
2019-06-15T02:02:27.643Z,0
2019-06-15T02:03:28.219Z,0
2019-06-15T02:04:28.786Z,0
2019-06-15T02:05:29.363Z,0
2019-06-15T02:06:30.004Z,0
2019-06-15T02:07:30.634Z,0
2019-06-15T02:08:31.200Z,0
2019-06-15T02:09:31.770Z,0
2019-06-15T02:10:32.343Z,0
2019-06-15T02:11:32.911Z,0
2019-06-15T02:12:33.489Z,0
2019-06-15T02:13:34.102Z,0
2019-06-15T02:14:34.670Z,0
2019-06-15T02:15:35.246Z,0
2019-06-15T02:16:35.812Z,0
2019-06-15T02:17:36.382Z,0
2019-06-15T02:18:36.959Z,0
2019-06-15T02:19:37.562Z,0
2019-06-15T02:20:38.144Z,0
2019-06-15T02:21:38.715Z,0
2019-06-15T02:22:39.286Z,0
2019-06-15T02:23:39.859Z,0
2019-06-15T02:24:40.434Z,0
2019-06-15T02:25:41.011Z,0
2019-06-15T02:26:41.583Z,0
2019-06-15T02:27:42.150Z,0
2019-06-15T02:28:42.722Z,0
2019-06-15T02:29:43.293Z,0
2019-06-15T02:30:43.866Z,0
2019-06-15T02:31:44.478Z,0
2019-06-15T02:32:45.048Z,0
2019-06-15T02:33:45.622Z,0
2019-06-15T02:34:46.190Z,0
2019-06-15T02:35:46.760Z,0
2019-06-15T02:36:47.333Z,0
2019-06-15T02:37:47.943Z,0
2019-06-15T02:38:48.516Z,0
2019-06-15T02:39:49.088Z,0
2019-06-15T02:40:49.660Z,0
2019-06-15T02:41:50.232Z,0
2019-06-15T02:42:50.802Z,0
2019-06-15T02:43:51.378Z,0
2019-06-15T02:44:51.988Z,0
2019-06-15T02:45:52.566Z,0
2019-06-15T02:46:53.172Z,0
2019-06-15T02:47:53.770Z,0
2019-06-15T02:48:54.316Z,0
2019-06-15T02:49:54.928Z,0
2019-06-15T02:50:55.498Z,0
2019-06-15T02:51:56.069Z,0
2019-06-15T02:52:56.635Z,0
2019-06-15T02:53:57.209Z,0
2019-06-15T02:54:57.817Z,0
2019-06-15T02:55:58.393Z,0
2019-06-15T02:56:58.986Z,0
2019-06-15T02:57:59.537Z,0
2019-06-15T02:59:00.107Z,0
2019-06-15T03:00:00.980Z,0
2019-06-15T03:01:01.528Z,0
2019-06-15T03:02:02.152Z,0
2019-06-15T03:03:02.750Z,0
2019-06-15T03:04:03.318Z,0
2019-06-15T03:05:03.887Z,0
2019-06-15T03:06:04.455Z,0
2019-06-15T03:07:05.027Z,0
2019-06-15T03:08:05.597Z,0
2019-06-15T03:09:06.168Z,0
2019-06-15T03:10:06.784Z,0
2019-06-15T03:11:07.353Z,0
2019-06-15T03:12:07.922Z,0
2019-06-15T03:13:08.493Z,0
2019-06-15T03:14:09.064Z,0
2019-06-15T03:15:09.634Z,0
2019-06-15T03:16:10.207Z,0
2019-06-15T03:17:10.780Z,0
2019-06-15T03:18:11.347Z,0
2019-06-15T03:19:11.919Z,0
2019-06-15T03:20:12.492Z,0
2019-06-15T03:21:13.061Z,0
2019-06-15T03:22:13.632Z,0
2019-06-15T03:23:14.221Z,0
2019-06-15T03:24:14.828Z,0
2019-06-15T03:25:15.390Z,0
2019-06-15T03:26:16.006Z,0
2019-06-15T03:27:16.577Z,0
2019-06-15T03:28:17.147Z,0
2019-06-15T03:29:17.720Z,0
2019-06-15T03:30:18.289Z,0
2019-06-15T03:31:18.861Z,0
2019-06-15T03:32:19.431Z,0
2019-06-15T03:33:20.006Z,0
2019-06-15T03:34:20.573Z,0
2019-06-15T03:35:21.190Z,0
2019-06-15T03:36:21.761Z,0
2019-06-15T03:37:22.328Z,0
2019-06-15T03:38:22.900Z,0
2019-06-15T03:39:23.472Z,0
2019-06-15T03:40:24.042Z,0
2019-06-15T03:41:24.615Z,0
2019-06-15T03:42:25.187Z,0
2019-06-15T03:43:25.794Z,0
2019-06-15T03:44:26.366Z,0
2019-06-15T03:45:26.937Z,0
2019-06-15T03:46:27.509Z,0
2019-06-15T03:47:28.081Z,0
2019-06-15T03:48:28.652Z,0
2019-06-15T03:49:29.223Z,0
2019-06-15T03:50:29.793Z,0
2019-06-15T03:51:30.362Z,0
2019-06-15T03:52:30.947Z,0
2019-06-15T03:53:31.553Z,0
2019-06-15T03:54:32.166Z,0
2019-06-15T03:55:32.712Z,0
2019-06-15T03:56:33.310Z,0
2019-06-15T03:57:33.917Z,0
2019-06-15T03:58:34.490Z,0
2019-06-15T03:59:35.061Z,0
2019-06-15T04:00:35.685Z,0
2019-06-15T04:01:36.294Z,0
2019-06-15T04:02:36.877Z,0
2019-06-15T04:03:37.446Z,0
2019-06-15T04:04:38.019Z,0
2019-06-15T04:05:38.631Z,0
2019-06-15T04:06:39.203Z,0
2019-06-15T04:07:39.771Z,0
2019-06-15T04:08:40.343Z,0
2019-06-15T04:09:40.914Z,0
2019-06-15T04:10:41.483Z,0
2019-06-15T04:11:42.056Z,0
2019-06-15T04:12:42.645Z,0
2019-06-15T04:13:43.202Z,0
2019-06-15T04:14:43.772Z,0
2019-06-15T04:15:44.344Z,0
2019-06-15T04:16:44.959Z,0
2019-06-15T04:17:45.571Z,0
2019-06-15T04:18:46.141Z,0
2019-06-15T04:19:46.718Z,0
2019-06-15T04:20:47.285Z,0
2019-06-15T04:21:47.853Z,0
2019-06-15T04:22:48.424Z,0
2019-06-15T04:23:48.995Z,0
2019-06-15T04:24:49.568Z,0
2019-06-15T04:25:50.140Z,0
2019-06-15T04:26:50.752Z,0
2019-06-15T04:27:51.375Z,0
2019-06-15T04:28:51.935Z,0
2019-06-15T04:29:52.504Z,0
2019-06-15T04:30:53.078Z,0
2019-06-15T04:31:53.645Z,0
2019-06-15T04:32:54.214Z,0
2019-06-15T04:33:54.785Z,0
2019-06-15T04:34:55.356Z,0
2019-06-15T04:35:55.928Z,0
2019-06-15T04:36:56.496Z,0
2019-06-15T04:37:57.068Z,0
2019-06-15T04:38:57.678Z,0
2019-06-15T04:39:58.251Z,0
2019-06-15T04:41:01.515Z,0
2019-06-15T04:42:00.432Z,0
2019-06-15T04:43:00.994Z,0
2019-06-15T04:44:01.566Z,0
2019-06-15T04:45:02.138Z,0
2019-06-15T04:46:02.708Z,0
2019-06-15T04:47:03.277Z,0
2019-06-15T04:48:03.864Z,0
2019-06-15T04:49:04.462Z,0
2019-06-15T04:50:05.032Z,0
2019-06-15T04:51:05.604Z,0
2019-06-15T04:52:06.173Z,0
2019-06-15T04:53:06.744Z,0
2019-06-15T04:54:07.317Z,0
2019-06-15T04:55:07.884Z,0
2019-06-15T04:56:08.457Z,0
2019-06-15T04:57:09.068Z,0
2019-06-15T04:58:09.640Z,0
2019-06-15T04:59:10.212Z,0
2019-06-15T05:00:10.783Z,0
2019-06-15T05:01:11.352Z,0
2019-06-15T05:02:11.927Z,0
2019-06-15T05:03:12.497Z,0
2019-06-15T05:04:13.064Z,0
2019-06-15T05:05:13.633Z,0
2019-06-15T05:06:14.219Z,0
2019-06-15T05:07:14.822Z,0
2019-06-15T05:08:15.392Z,0
2019-06-15T05:09:15.965Z,0
2019-06-15T05:10:16.536Z,0
2019-06-15T05:11:17.105Z,0
2019-06-15T05:12:17.678Z,0
2019-06-15T05:13:18.247Z,0
2019-06-15T05:14:18.817Z,0
2019-06-15T05:15:19.386Z,0
2019-06-15T05:16:19.961Z,0
2019-06-15T05:17:20.529Z,0
2019-06-15T05:18:21.099Z,0
2019-06-15T05:19:21.676Z,0
2019-06-15T05:20:22.248Z,0
2019-06-15T05:21:22.818Z,0
2019-06-15T05:22:23.388Z,0
2019-06-15T05:23:23.962Z,0
2019-06-15T05:24:24.531Z,0
2019-06-15T05:25:25.101Z,0
2019-06-15T05:26:25.670Z,0
2019-06-15T05:27:26.241Z,0
2019-06-15T05:28:26.818Z,0
2019-06-15T05:29:27.425Z,0
2019-06-15T05:30:28.003Z,0
2019-06-15T05:31:28.573Z,0
2019-06-15T05:32:29.147Z,0
2019-06-15T05:33:29.715Z,0
2019-06-15T05:34:30.323Z,0
2019-06-15T05:35:30.856Z,0
2019-06-15T05:36:31.433Z,0
2019-06-15T05:37:32.007Z,0
2019-06-15T05:38:32.577Z,0
2019-06-15T05:39:33.187Z,0
2019-06-15T05:40:33.766Z,0
2019-06-15T05:41:34.337Z,0
2019-06-15T05:42:34.911Z,0
2019-06-15T05:43:35.509Z,0
2019-06-15T05:44:36.094Z,0
2019-06-15T05:45:36.665Z,0
2019-06-15T05:46:37.235Z,0
2019-06-15T05:47:37.807Z,0
2019-06-15T05:48:38.414Z,0
2019-06-15T05:49:38.984Z,0
2019-06-15T05:50:39.553Z,0
2019-06-15T05:51:40.125Z,0
2019-06-15T05:52:40.699Z,0
2019-06-15T05:53:41.307Z,0
2019-06-15T05:54:41.877Z,0
2019-06-15T05:55:42.446Z,0
2019-06-15T05:56:43.016Z,0
2019-06-15T05:57:43.590Z,0
2019-06-15T05:58:44.158Z,0
2019-06-15T05:59:44.730Z,0
2019-06-15T06:00:45.299Z,0
2019-06-15T06:01:45.900Z,0
2019-06-15T06:02:46.483Z,0
2019-06-15T06:03:47.055Z,0
2019-06-15T06:04:47.657Z,0
2019-06-15T06:05:48.197Z,0
2019-06-15T06:06:48.768Z,0
2019-06-15T06:07:49.338Z,0
2019-06-15T06:08:49.913Z,0
2019-06-15T06:09:50.482Z,0
2019-06-15T06:10:51.049Z,0
2019-06-15T06:11:51.619Z,0
2019-06-15T06:12:52.189Z,0
2019-06-15T06:13:52.759Z,0
2019-06-15T06:14:53.331Z,0
2019-06-15T06:15:53.907Z,0
2019-06-15T06:16:54.515Z,0
2019-06-15T06:17:55.086Z,0
2019-06-15T06:18:55.655Z,0
2019-06-15T06:19:56.224Z,0
2019-06-15T06:20:56.803Z,0
2019-06-15T06:21:58.338Z,0
2019-06-15T06:22:58.933Z,0
2019-06-15T06:23:59.505Z,0
2019-06-15T06:25:00.074Z,0
2019-06-15T06:26:00.644Z,0
2019-06-15T06:27:01.265Z,0
2019-06-15T06:28:01.831Z,0
2019-06-15T06:29:02.445Z,0
2019-06-15T06:30:03.015Z,0
2019-06-15T06:31:03.648Z,0
2019-06-15T06:32:04.212Z,0
2019-06-15T06:33:04.783Z,0
2019-06-15T06:34:05.384Z,0
2019-06-15T06:35:05.924Z,0
2019-06-15T06:36:06.511Z,0
2019-06-15T06:37:07.067Z,0
2019-06-15T06:38:07.639Z,0
2019-06-15T06:39:08.210Z,0
2019-06-15T06:40:08.798Z,0
2019-06-15T06:41:09.392Z,0
2019-06-15T06:42:09.964Z,0
2019-06-15T06:43:10.535Z,0
2019-06-15T06:44:11.108Z,0
2019-06-15T06:45:11.675Z,0
2019-06-15T06:46:12.246Z,0
2019-06-15T06:47:12.820Z,0
2019-06-15T06:48:13.437Z,0
2019-06-15T06:49:14.045Z,0
2019-06-15T06:50:14.615Z,0
2019-06-15T06:51:15.186Z,0
2019-06-15T06:52:15.761Z,0
2019-06-15T06:53:16.371Z,0
2019-06-15T06:54:16.943Z,0
2019-06-15T06:55:17.524Z,0
2019-06-15T06:56:18.120Z,0
2019-06-15T06:57:18.673Z,0
2019-06-15T06:58:19.227Z,0
2019-06-15T06:59:19.798Z,0
2019-06-15T07:00:20.382Z,0
2019-06-15T07:01:20.942Z,0
2019-06-15T07:02:21.513Z,0
2019-06-15T07:03:22.083Z,0
2019-06-15T07:04:22.700Z,0
2019-06-15T07:05:23.311Z,0
2019-06-15T07:06:23.890Z,0
2019-06-15T07:07:24.496Z,0
2019-06-15T07:08:25.066Z,0
2019-06-15T07:09:25.639Z,0
2019-06-15T07:10:26.208Z,0
2019-06-15T07:11:26.786Z,0
2019-06-15T07:12:27.357Z,0
2019-06-15T07:13:27.920Z,0
2019-06-15T07:14:28.498Z,0
2019-06-15T07:15:29.107Z,0
2019-06-15T07:16:29.674Z,0
2019-06-15T07:17:30.270Z,0
2019-06-15T07:18:30.863Z,0
2019-06-15T07:19:31.436Z,0
2019-06-15T07:20:32.012Z,0
2019-06-15T07:21:32.616Z,0
2019-06-15T07:22:33.185Z,0
2019-06-15T07:23:33.757Z,0
2019-06-15T07:24:34.327Z,0
2019-06-15T07:25:34.896Z,0
2019-06-15T07:26:35.469Z,0
2019-06-15T07:27:36.037Z,0
2019-06-15T07:28:36.606Z,0
2019-06-15T07:29:37.184Z,0
2019-06-15T07:30:37.792Z,0
2019-06-15T07:31:38.361Z,0
2019-06-15T07:32:38.934Z,0
2019-06-15T07:33:39.503Z,0
2019-06-15T07:34:40.074Z,0
2019-06-15T07:35:40.643Z,0
2019-06-15T07:36:41.212Z,0
2019-06-15T07:37:41.780Z,0
2019-06-15T07:38:42.408Z,0
2019-06-15T07:39:42.965Z,0
2019-06-15T07:40:43.536Z,0
2019-06-15T07:41:44.152Z,0
2019-06-15T07:42:44.721Z,0
2019-06-15T07:43:45.292Z,0
2019-06-15T07:44:45.870Z,0
2019-06-15T07:45:46.436Z,0
2019-06-15T07:46:47.010Z,0
2019-06-15T07:47:47.579Z,0
2019-06-15T07:48:48.151Z,0
2019-06-15T07:49:48.723Z,0
2019-06-15T07:50:49.294Z,0
2019-06-15T07:51:49.869Z,0
2019-06-15T07:52:50.437Z,0
2019-06-15T07:53:51.018Z,0
2019-06-15T07:54:51.583Z,0
2019-06-15T07:55:52.156Z,0
2019-06-15T07:56:52.795Z,0
2019-06-15T07:57:53.421Z,0
2019-06-15T07:58:54.009Z,0
2019-06-15T07:59:54.614Z,0
2019-06-15T08:00:55.187Z,0
2019-06-15T08:01:55.782Z,0
2019-06-15T08:02:56.385Z,0
2019-06-15T08:03:57.334Z,0
2019-06-15T08:04:57.603Z,0
2019-06-15T08:05:58.183Z,0
2019-06-15T08:06:58.745Z,0
2019-06-15T08:07:59.314Z,0
2019-06-15T08:08:59.885Z,0
2019-06-15T08:10:00.463Z,0
2019-06-15T08:11:01.069Z,0
2019-06-15T08:12:02.099Z,0
2019-06-15T08:13:02.707Z,0
2019-06-15T08:14:03.323Z,0
2019-06-15T08:15:03.936Z,0
2019-06-15T08:16:04.561Z,0
2019-06-15T08:17:05.162Z,0
2019-06-15T08:18:05.980Z,0
2019-06-15T08:19:06.567Z,0
2019-06-15T08:20:07.165Z,0
2019-06-15T08:21:07.936Z,0
2019-06-15T08:22:08.561Z,0
2019-06-15T08:23:09.131Z,0
2019-06-15T08:24:09.692Z,0
2019-06-15T08:26:25.678Z,0
2019-06-15T08:27:26.249Z,0
2019-06-15T08:28:39.625Z,0
2019-06-15T08:29:28.426Z,0
2019-06-15T08:30:29.039Z,0
2019-06-15T08:31:29.653Z,0
2019-06-15T08:32:30.266Z,0
2019-06-15T08:33:30.883Z,0
2019-06-15T08:34:31.452Z,0
2019-06-15T08:35:32.067Z,0
2019-06-15T08:36:32.680Z,0
2019-06-15T08:37:33.292Z,0
2019-06-15T08:38:33.906Z,0
2019-06-15T08:39:34.483Z,0
2019-06-15T08:40:35.263Z,0
2019-06-15T08:41:35.870Z,0
2019-06-15T08:42:36.449Z,0
2019-06-15T08:43:37.055Z,0
2019-06-15T08:44:37.626Z,0
2019-06-15T08:45:38.195Z,0
2019-06-15T08:46:38.816Z,0
2019-06-15T08:47:39.626Z,0
2019-06-15T08:48:40.241Z,0
2019-06-15T08:49:40.811Z,0
2019-06-15T08:50:41.425Z,0
2019-06-15T08:51:41.994Z,0
2019-06-15T08:52:42.574Z,0
2019-06-15T08:53:43.141Z,0
2019-06-15T08:54:43.749Z,0
2019-06-15T08:55:44.521Z,0
2019-06-15T08:56:45.136Z,0
2019-06-15T08:57:45.708Z,0
2019-06-15T08:58:55.170Z,0
2019-06-15T08:59:47.841Z,0
2019-06-15T09:00:48.469Z,0
2019-06-15T09:01:49.073Z,0
2019-06-15T09:02:49.642Z,0
2019-06-15T09:03:50.254Z,0
2019-06-15T09:04:50.879Z,0
2019-06-15T09:05:51.437Z,0
2019-06-15T09:06:52.008Z,0
2019-06-15T09:07:52.619Z,0
2019-06-15T09:08:53.191Z,0
2019-06-15T09:09:54.413Z,0
2019-06-15T09:10:54.986Z,0
2019-06-15T09:11:55.598Z,0
2019-06-15T09:12:56.215Z,0
2019-06-15T09:17:43.298Z,0
2019-06-15T09:19:59.495Z,0
2019-06-15T09:21:00.115Z,0
2019-06-15T09:22:00.730Z,0
2019-06-15T09:23:01.293Z,0
2019-06-15T09:24:01.866Z,0
2019-06-15T09:25:02.482Z,0
2019-06-15T09:26:03.057Z,0
2019-06-15T09:27:03.671Z,0
2019-06-15T09:28:04.285Z,0
2019-06-15T09:29:11.137Z,0
2019-06-15T09:30:05.466Z,0
2019-06-15T09:31:06.247Z,0
2019-06-15T09:33:22.282Z,0
2019-06-15T09:34:22.851Z,0
2019-06-15T09:35:23.464Z,0
2019-06-15T09:36:24.277Z,0
2019-06-15T09:37:24.847Z,0
2019-06-15T09:38:25.631Z,0
2019-06-15T09:39:26.446Z,0
2019-06-15T09:40:27.066Z,0
2019-06-15T09:41:27.674Z,0
2019-06-15T09:42:28.288Z,0
2019-06-15T09:43:28.859Z,0
2019-06-15T09:44:29.429Z,0
2019-06-15T09:45:32.933Z,0
2019-06-15T09:46:31.565Z,0
2019-06-15T09:47:32.149Z,0
2019-06-15T09:48:33.162Z,0
2019-06-15T09:49:33.731Z,0
2019-06-15T09:50:34.305Z,0
2019-06-15T09:51:34.931Z,0
2019-06-15T09:52:35.534Z,0
2019-06-15T09:53:36.148Z,0
2019-06-15T09:54:36.922Z,0
2019-06-15T09:55:37.508Z,0
2019-06-15T09:56:38.119Z,0
2019-06-15T09:57:38.692Z,0
2019-06-15T09:58:39.915Z,0
2019-06-15T09:59:40.442Z,0
2019-06-15T10:00:41.063Z,0
2019-06-15T10:01:41.836Z,0
2019-06-15T10:02:42.460Z,0
2019-06-15T10:03:43.077Z,0
2019-06-15T10:04:43.689Z,0
2019-06-15T10:05:44.338Z,0
2019-06-15T10:08:00.543Z,0
2019-06-15T10:10:16.535Z,0
2019-06-15T10:11:17.309Z,0
2019-06-15T10:12:17.898Z,0
2019-06-15T10:13:18.493Z,0
2019-06-15T10:15:34.531Z,0
2019-06-15T10:16:35.098Z,0
2019-06-15T10:17:35.743Z,0
2019-06-15T10:18:38.830Z,0
2019-06-15T10:19:37.143Z,0
2019-06-15T10:20:37.793Z,0
2019-06-15T10:21:38.649Z,0
2019-06-15T10:22:39.402Z,0
2019-06-15T10:23:40.028Z,0
2019-06-15T10:25:56.229Z,0
2019-06-15T10:26:56.801Z,0
2019-06-15T10:27:58.797Z,0
2019-06-15T10:28:59.611Z,0
2019-06-15T10:30:00.183Z,0
2019-06-15T10:31:00.957Z,0
2019-06-15T10:32:01.531Z,60
2019-06-15T10:33:02.105Z,25
2019-06-15T10:34:02.738Z,40
2019-06-15T10:35:03.504Z,40
2019-06-15T10:37:19.509Z,30
2019-06-15T10:38:20.083Z,35
2019-06-15T10:39:20.659Z,35
2019-06-15T10:40:21.237Z,35
2019-06-15T10:41:21.855Z,35
2019-06-15T10:42:22.927Z,35
2019-06-15T10:43:23.094Z,35
2019-06-15T10:45:39.140Z,20
2019-06-15T10:46:39.760Z,15
2019-06-15T10:48:55.853Z,10
2019-06-15T10:49:56.388Z,10
2019-06-15T10:50:57.166Z,15
2019-06-15T10:51:57.988Z,15
2019-06-15T10:52:58.568Z,15
2019-06-15T10:54:00.013Z,15
2019-06-15T10:55:00.581Z,15
2019-06-15T10:56:01.199Z,15
2019-06-15T10:57:01.977Z,15
2019-06-15T10:58:02.550Z,15
2019-06-15T10:59:03.135Z,15
2019-06-15T11:00:03.766Z,15
2019-06-15T11:01:04.363Z,15
2019-06-15T11:02:04.983Z,15
2019-06-15T11:03:05.599Z,15
2019-06-15T11:05:21.841Z,15
2019-06-15T11:06:22.621Z,15
2019-06-15T11:07:23.254Z,10
2019-06-15T11:08:23.817Z,10
2019-06-15T11:10:39.860Z,15
2019-06-15T11:11:40.638Z,10
2019-06-15T11:12:46.301Z,10
2019-06-15T11:13:42.782Z,15
2019-06-15T11:14:43.402Z,15
2019-06-15T11:15:43.976Z,15
2019-06-15T11:16:44.801Z,10
2019-06-15T11:17:45.458Z,10
2019-06-15T11:18:45.995Z,10
2019-06-15T11:19:46.617Z,10
2019-06-15T11:20:47.249Z,10
2019-06-15T11:21:47.858Z,10
2019-06-15T11:22:48.468Z,10
2019-06-15T11:23:49.289Z,10
2019-06-15T11:24:49.904Z,10
2019-06-15T11:25:50.486Z,10
2019-06-15T11:26:51.098Z,10
2019-06-15T11:27:51.674Z,10
2019-06-15T11:28:52.496Z,10
2019-06-15T11:29:53.116Z,10
2019-06-15T11:32:09.158Z,10
2019-06-15T11:33:09.733Z,10
2019-06-15T11:34:10.550Z,10
2019-06-15T11:35:11.127Z,10
2019-06-15T11:36:11.899Z,5
2019-06-15T11:38:27.901Z,5
2019-06-15T11:39:28.473Z,5
2019-06-15T11:40:29.069Z,5
2019-06-15T11:41:29.671Z,5
2019-06-15T11:42:30.485Z,5
2019-06-15T11:43:31.103Z,5
2019-06-15T11:44:31.724Z,5
2019-06-15T11:45:32.337Z,5
2019-06-15T11:46:32.910Z,5
2019-06-15T11:47:33.525Z,5
2019-06-15T11:48:34.114Z,5
2019-06-15T11:49:34.917Z,5
2019-06-15T11:50:35.492Z,5
2019-06-15T11:51:36.064Z,5
2019-06-15T11:52:36.636Z,5
2019-06-15T11:54:52.676Z,5
2019-06-15T11:55:53.497Z,5
2019-06-15T11:56:54.115Z,5
2019-06-15T11:57:54.698Z,5
2019-06-15T11:58:55.270Z,5
2019-06-15T11:59:55.844Z,5
2019-06-15T12:00:56.416Z,5
2019-06-15T12:03:12.415Z,5
2019-06-15T12:04:13.036Z,5
2019-06-15T12:05:13.609Z,5
2019-06-15T12:06:14.428Z,5
2019-06-15T12:07:15.049Z,5
2019-06-15T12:08:15.826Z,5
2019-06-15T12:09:16.643Z,5
2019-06-15T12:11:33.295Z,5
2019-06-15T12:12:33.868Z,5
2019-06-15T12:13:34.489Z,5
2019-06-15T12:14:35.059Z,5
2019-06-15T12:15:35.642Z,5
2019-06-15T12:16:36.252Z,5
2019-06-15T12:17:36.871Z,5
2019-06-15T12:18:37.487Z,5
2019-06-15T12:19:38.060Z,5
2019-06-15T12:20:39.179Z,5
2019-06-15T12:22:54.875Z,5
2019-06-15T12:23:55.689Z,5
2019-06-15T12:24:56.261Z,5
2019-06-15T12:25:57.083Z,5
2019-06-15T12:26:57.654Z,5
2019-06-15T12:27:58.228Z,5
2019-06-15T12:28:58.848Z,5
2019-06-15T12:31:14.889Z,5
2019-06-15T12:33:31.130Z,5
2019-06-15T12:34:31.950Z,5
2019-06-15T12:35:32.769Z,5
2019-06-15T12:36:33.348Z,5
2019-06-15T12:37:33.960Z,5
2019-06-15T12:38:34.534Z,5
2019-06-15T12:39:41.422Z,5
2019-06-15T12:40:35.764Z,5
2019-06-15T12:41:36.337Z,5
2019-06-15T12:42:36.916Z,5
2019-06-15T12:43:37.738Z,5
2019-06-15T12:44:38.348Z,5
2019-06-15T12:45:38.968Z,5
2019-06-15T12:46:39.571Z,5
2019-06-15T12:47:40.144Z,5
2019-06-15T12:48:40.764Z,5
2019-06-15T12:49:41.541Z,5
2019-06-15T12:50:42.160Z,5
2019-06-15T12:51:42.939Z,5
2019-06-15T12:52:43.560Z,5
2019-06-15T12:53:44.173Z,5
2019-06-15T12:54:44.749Z,5
2019-06-15T12:57:00.793Z,5
2019-06-15T12:58:01.625Z,5
2019-06-15T12:59:02.228Z,5
2019-06-15T13:00:02.896Z,1070
2019-06-15T13:01:03.751Z,1045
2019-06-15T13:02:04.313Z,980
2019-06-15T13:03:05.097Z,980
2019-06-15T13:04:05.918Z,1015
2019-06-15T13:05:06.495Z,1060
2019-06-15T13:06:07.072Z,1065
2019-06-15T13:07:07.711Z,1050
2019-06-15T13:08:08.332Z,1055
2019-06-15T13:09:35.626Z,1080
2019-06-15T13:10:36.263Z,1010
2019-06-15T13:11:37.097Z,1005
2019-06-15T13:12:37.679Z,1010
2019-06-15T13:13:52.970Z,70
2019-06-15T13:14:53.547Z,10
2019-06-15T13:15:54.128Z,10
2019-06-15T13:16:54.702Z,10
2019-06-15T13:17:55.280Z,10
2019-06-15T13:18:55.902Z,10
2019-06-15T13:19:56.477Z,5
2019-06-15T13:20:57.054Z,5
2019-06-15T13:21:57.629Z,5
2019-06-15T13:22:58.206Z,5
2019-06-15T13:23:58.782Z,5
2019-06-15T13:24:59.358Z,5
2019-06-15T13:25:59.940Z,10
2019-06-15T13:27:00.607Z,10
2019-06-15T13:28:01.522Z,5
2019-06-15T13:29:02.035Z,5
2019-06-15T13:30:02.611Z,10
2019-06-15T13:31:17.351Z,10
2019-06-15T13:32:04.759Z,10
2019-06-15T13:33:05.331Z,5
2019-06-15T13:34:05.907Z,10
2019-06-15T13:35:33.213Z,10
2019-06-15T13:36:33.791Z,10
2019-06-15T13:37:42.029Z,10
2019-06-15T13:38:35.934Z,10
2019-06-15T13:39:36.521Z,10
2019-06-15T13:40:37.124Z,10
2019-06-15T13:41:37.702Z,10
2019-06-15T13:42:38.278Z,220
2019-06-15T13:43:38.856Z,10
2019-06-15T13:44:39.431Z,10
2019-06-15T13:45:40.014Z,10
2019-06-15T13:46:40.585Z,10
2019-06-15T13:47:41.160Z,10
2019-06-15T13:48:41.746Z,10
2019-06-15T13:49:42.363Z,10
2019-06-15T13:50:42.936Z,10
2019-06-15T13:51:43.509Z,10
2019-06-15T13:52:44.087Z,15
2019-06-15T13:53:44.665Z,10
2019-06-15T13:54:45.246Z,10
2019-06-15T13:55:45.818Z,10
2019-06-15T13:56:46.392Z,10
2019-06-15T13:57:46.968Z,10
2019-06-15T13:58:47.544Z,10
2019-06-15T13:59:48.123Z,10
2019-06-15T14:00:48.697Z,10
2019-06-15T14:01:49.276Z,10
2019-06-15T14:02:49.852Z,10
2019-06-15T14:03:50.425Z,10
2019-06-15T14:04:51.002Z,10
2019-06-15T14:05:51.577Z,10
2019-06-15T14:06:52.153Z,10
2019-06-15T14:07:52.730Z,10
2019-06-15T14:08:53.306Z,10
2019-06-15T14:09:53.882Z,10
2019-06-15T14:10:54.461Z,10
2019-06-15T14:11:55.033Z,10
2019-06-15T14:12:55.607Z,10
2019-06-15T14:13:56.291Z,10
2019-06-15T14:14:56.843Z,10
2019-06-15T14:15:57.424Z,10
2019-06-15T14:16:58.003Z,10
2019-06-15T14:17:58.577Z,10
2019-06-15T14:18:59.156Z,10
2019-06-15T14:19:59.728Z,10
2019-06-15T14:21:00.307Z,10
2019-06-15T14:22:00.881Z,25
2019-06-15T14:23:01.461Z,25
2019-06-15T14:24:02.038Z,20
2019-06-15T14:25:02.656Z,15
2019-06-15T14:26:03.237Z,15
2019-06-15T14:27:03.855Z,15
2019-06-15T14:28:04.428Z,15
2019-06-15T14:29:05.003Z,15
2019-06-15T14:30:05.604Z,15
2019-06-15T14:31:06.156Z,10
2019-06-15T14:32:06.753Z,10
2019-06-15T14:33:07.314Z,10
2019-06-15T14:34:07.932Z,10
2019-06-15T14:35:08.508Z,15
2019-06-15T14:36:09.129Z,15
2019-06-15T14:37:09.706Z,10
2019-06-15T14:38:10.282Z,15
2019-06-15T14:39:10.861Z,15
2019-06-15T14:40:11.474Z,15
2019-06-15T14:41:12.008Z,15
2019-06-15T14:42:12.644Z,15
2019-06-15T14:43:13.242Z,15
2019-06-15T14:44:13.816Z,15
2019-06-15T14:45:14.392Z,15
2019-06-15T14:46:14.972Z,15
2019-06-15T14:47:15.545Z,15
2019-06-15T14:48:16.123Z,15
2019-06-15T14:49:16.746Z,15
2019-06-15T14:50:17.325Z,15
2019-06-15T14:51:17.940Z,15
2019-06-15T14:52:18.517Z,15
2019-06-15T14:53:19.092Z,15
2019-06-15T14:54:19.667Z,15
2019-06-15T14:55:20.251Z,15
2019-06-15T14:56:20.873Z,15
2019-06-15T14:57:21.443Z,15
2019-06-15T14:58:22.019Z,15
2019-06-15T14:59:22.596Z,15
2019-06-15T15:00:23.173Z,15
2019-06-15T15:01:25.963Z,15
2019-06-15T15:02:26.229Z,15
2019-06-15T15:03:26.887Z,15
2019-06-15T15:04:27.471Z,15
2019-06-15T15:05:28.041Z,15
2019-06-15T15:06:28.617Z,15
2019-06-15T15:07:29.194Z,15
2019-06-15T15:08:29.773Z,15
2019-06-15T15:09:30.392Z,15
2019-06-15T15:10:30.974Z,15
2019-06-15T15:11:31.545Z,15
2019-06-15T15:12:32.121Z,15
2019-06-15T15:13:32.695Z,15
2019-06-15T15:14:33.270Z,15
2019-06-15T15:15:36.291Z,15
2019-06-15T15:16:35.421Z,10
2019-06-15T15:17:37.222Z,10
2019-06-15T15:18:37.558Z,10
2019-06-15T15:19:38.137Z,10